M/V Grande Caribe — WCX4495 — position and weather

sailwx.info

Track history (hours):
 
Tides and Currents Weather Stations Pressure Air Temp Water Temp Dewpoint Dewpoint Depression Visibility Wind Speed Wind Dir Waves Ship Positions

M/V Grande Caribe

More information available from US FCC via Universal Licensing System and Coast Guard Vessel Documentation Center.

Last reported at 2014-Sep-01 14:23 UTC. Time now 2014-Sep-01 21:00 UTC.
Position N 40°45' W 074°01'.

Length 55 m; draft 2.1 m.

Type: Ship. MMSI: 369023000.

Date/timePositionNaut miles runAvg speedWind from/ knotsBaromVisibWave heightAir tempDewpointWater temp
2014-Sep-01 14:23N 40°45' W 074°01'2 0.6
2014-Sep-01 10:32N 40°43' W 074°01'1010.1
2014-Sep-01 09:33N 40°48' W 073°50'10 8.7
2014-Sep-01 08:23N 40°55' W 073°40'7 7.3
2014-Sep-01 07:22N 40°58' W 073°31'6 7.5
2014-Sep-01 06:33N 41°00' W 073°24'9 9.2
2014-Sep-01 05:33N 41°02' W 073°12'10 9.4
2014-Sep-01 04:29N 41°04' W 072°58'9 9.8
2014-Sep-01 03:33N 41°06' W 072°47'10 9.7
2014-Sep-01 02:33N 41°09' W 072°35'10 9.5
2014-Sep-01 01:33N 41°12' W 072°22'8 8.1
2014-Sep-01 00:33N 41°13' W 072°12'8 7.9
2014-Aug-31 23:33N 41°14' W 072°01'9 9.2
2014-Aug-31 22:33N 41°16' W 071°50'10 9.7
2014-Aug-31 21:33N 41°18' W 071°37'9 9.2
2014-Aug-31 20:33N 41°22' W 071°26'10 9.5
2014-Aug-31 19:28N 41°31' W 071°20'910.1
2014-Aug-31 18:33N 41°41' W 071°19'3 3.0
2014-Aug-31 17:33N 41°43' W 071°17'0 0.0
2014-Aug-31 16:33N 41°43' W 071°17'0 0.0
2014-Aug-31 15:33N 41°43' W 071°17'0 0.0
2014-Aug-31 14:33N 41°43' W 071°17'0 0.0
2014-Aug-31 13:33N 41°43' W 071°17'0 0.0
2014-Aug-31 12:33N 41°43' W 071°17'0 0.0
2014-Aug-31 11:33N 41°43' W 071°17'0 0.0
2014-Aug-31 10:33N 41°43' W 071°17'0 0.0
2014-Aug-31 09:33N 41°43' W 071°17'0 0.0
2014-Aug-31 08:33N 41°43' W 071°17'0 0.0
2014-Aug-31 07:33N 41°43' W 071°17'0 0.0
2014-Aug-31 06:33N 41°43' W 071°17'0 0.0
2014-Aug-31 05:33N 41°43' W 071°17'0 0.0
2014-Aug-31 04:33N 41°43' W 071°17'0 0.0
2014-Aug-31 03:33N 41°43' W 071°17'0 0.0
2014-Aug-31 02:33N 41°43' W 071°17'0 0.0
2014-Aug-31 01:33N 41°43' W 071°17'0 0.0
2014-Aug-31 00:33N 41°43' W 071°17'0 0.0
2014-Aug-30 23:33N 41°43' W 071°17'0 0.0
2014-Aug-30 19:30N 41°43' W 071°17'0 0.0
2014-Aug-30 18:31N 41°43' W 071°17'0 0.0
2014-Aug-30 17:33N 41°43' W 071°17'0 0.0
2014-Aug-30 16:33N 41°43' W 071°17'0 0.0
2014-Aug-30 15:33N 41°43' W 071°17'0 0.0
2014-Aug-30 14:33N 41°43' W 071°17'0 0.0
2014-Aug-30 13:33N 41°43' W 071°17'0 0.0
2014-Aug-30 12:33N 41°43' W 071°17'0 0.0
2014-Aug-30 11:33N 41°43' W 071°17'1 1.4
2014-Aug-30 10:33N 41°42' W 071°18'9 9.5
2014-Aug-30 09:33N 41°33' W 071°20'9 9.5
2014-Aug-30 08:33N 41°24' W 071°25'9 9.3
2014-Aug-30 07:33N 41°19' W 071°35'10 9.6
2014-Aug-30 06:33N 41°17' W 071°47'9 9.1
2014-Aug-30 05:33N 41°13' W 071°58'8 8.2
2014-Aug-30 04:33N 41°14' W 072°09'8 8.2
2014-Aug-30 03:33N 41°12' W 072°20'8 8.3
2014-Aug-30 02:33N 41°10' W 072°30'9 9.4
2014-Aug-30 01:33N 41°07' W 072°43'10 9.9
2014-Aug-30 00:32N 41°05' W 072°55'2110.4
2014-Aug-29 22:29N 41°01' W 073°23'1210.5
2014-Aug-29 21:19N 40°55' W 073°38'8 9.9
2014-Aug-29 20:29N 40°50' W 073°46'7 7.3
2014-Aug-29 19:33N 40°48' W 073°55'6 5.9
2014-Aug-29 18:33N 40°43' W 073°59'  
Track history (hours):
 
Tides and Currents Weather Stations Pressure Air Temp Water Temp Dewpoint Dewpoint Depression Visibility Wind Speed Wind Dir Waves Ship Positions

M/V Grande Caribe

More information available from US FCC via Universal Licensing System and Coast Guard Vessel Documentation Center.

Last reported at 2014-Sep-01 14:23 UTC. Time now 2014-Sep-01 21:00 UTC.
Position N 40°45' W 074°01'.

Length 55 m; draft 2.1 m.

Type: Ship. MMSI: 369023000.

Date/timePositionNaut miles runAvg speedWind from/ knotsBaromVisibWave heightAir tempDewpointWater temp
2014-Sep-01 14:23N 40°45' W 074°01'2 0.6
2014-Sep-01 10:32N 40°43' W 074°01'1010.1
2014-Sep-01 09:33N 40°48' W 073°50'10 8.7
2014-Sep-01 08:23N 40°55' W 073°40'7 7.3
2014-Sep-01 07:22N 40°58' W 073°31'6 7.5
2014-Sep-01 06:33N 41°00' W 073°24'9 9.2
2014-Sep-01 05:33N 41°02' W 073°12'10 9.4
2014-Sep-01 04:29N 41°04' W 072°58'9 9.8
2014-Sep-01 03:33N 41°06' W 072°47'10 9.7
2014-Sep-01 02:33N 41°09' W 072°35'10 9.5
2014-Sep-01 01:33N 41°12' W 072°22'8 8.1
2014-Sep-01 00:33N 41°13' W 072°12'8 7.9
2014-Aug-31 23:33N 41°14' W 072°01'9 9.2
2014-Aug-31 22:33N 41°16' W 071°50'10 9.7
2014-Aug-31 21:33N 41°18' W 071°37'9 9.2
2014-Aug-31 20:33N 41°22' W 071°26'10 9.5
2014-Aug-31 19:28N 41°31' W 071°20'910.1
2014-Aug-31 18:33N 41°41' W 071°19'3 3.0
2014-Aug-31 17:33N 41°43' W 071°17'0 0.0
2014-Aug-31 16:33N 41°43' W 071°17'0 0.0
2014-Aug-31 15:33N 41°43' W 071°17'0 0.0
2014-Aug-31 14:33N 41°43' W 071°17'0 0.0
2014-Aug-31 13:33N 41°43' W 071°17'0 0.0
2014-Aug-31 12:33N 41°43' W 071°17'0 0.0
2014-Aug-31 11:33N 41°43' W 071°17'0 0.0
2014-Aug-31 10:33N 41°43' W 071°17'0 0.0
2014-Aug-31 09:33N 41°43' W 071°17'0 0.0
2014-Aug-31 08:33N 41°43' W 071°17'0 0.0
2014-Aug-31 07:33N 41°43' W 071°17'0 0.0
2014-Aug-31 06:33N 41°43' W 071°17'0 0.0
2014-Aug-31 05:33N 41°43' W 071°17'0 0.0
2014-Aug-31 04:33N 41°43' W 071°17'0 0.0
2014-Aug-31 03:33N 41°43' W 071°17'0 0.0
2014-Aug-31 02:33N 41°43' W 071°17'0 0.0
2014-Aug-31 01:33N 41°43' W 071°17'0 0.0
2014-Aug-31 00:33N 41°43' W 071°17'0 0.0
2014-Aug-30 23:33N 41°43' W 071°17'0 0.0
2014-Aug-30 19:30N 41°43' W 071°17'0 0.0
2014-Aug-30 18:31N 41°43' W 071°17'0 0.0
2014-Aug-30 17:33N 41°43' W 071°17'0 0.0
2014-Aug-30 16:33N 41°43' W 071°17'0 0.0
2014-Aug-30 15:33N 41°43' W 071°17'0 0.0
2014-Aug-30 14:33N 41°43' W 071°17'0 0.0
2014-Aug-30 13:33N 41°43' W 071°17'0 0.0
2014-Aug-30 12:33N 41°43' W 071°17'0 0.0
2014-Aug-30 11:33N 41°43' W 071°17'1 1.4
2014-Aug-30 10:33N 41°42' W 071°18'9 9.5
2014-Aug-30 09:33N 41°33' W 071°20'9 9.5
2014-Aug-30 08:33N 41°24' W 071°25'9 9.3
2014-Aug-30 07:33N 41°19' W 071°35'10 9.6
2014-Aug-30 06:33N 41°17' W 071°47'9 9.1
2014-Aug-30 05:33N 41°13' W 071°58'8 8.2
2014-Aug-30 04:33N 41°14' W 072°09'8 8.2
2014-Aug-30 03:33N 41°12' W 072°20'8 8.3
2014-Aug-30 02:33N 41°10' W 072°30'9 9.4
2014-Aug-30 01:33N 41°07' W 072°43'10 9.9
2014-Aug-30 00:32N 41°05' W 072°55'2110.4
2014-Aug-29 22:29N 41°01' W 073°23'1210.5
2014-Aug-29 21:19N 40°55' W 073°38'8 9.9
2014-Aug-29 20:29N 40°50' W 073°46'7 7.3
2014-Aug-29 19:33N 40°48' W 073°55'6 5.9
2014-Aug-29 18:33N 40°43' W 073°59'  

Dump ship's entire track history